sensor_id;sensor_type;location;lat;lon;timestamp;P1;durP1;ratioP1;P2;durP2;ratioP2
69126;SDS011;56688;50.234;19.292;2023-11-22T00:01:19;18.10;;;11.50;;
69126;SDS011;56688;50.234;19.292;2023-11-22T00:03:46;15.80;;;10.10;;
69126;SDS011;56688;50.234;19.292;2023-11-22T00:06:14;12.70;;;9.00;;
69126;SDS011;56688;50.234;19.292;2023-11-22T00:08:41;14.90;;;9.80;;
69126;SDS011;56688;50.234;19.292;2023-11-22T00:11:08;15.30;;;9.70;;
69126;SDS011;56688;50.234;19.292;2023-11-22T00:13:35;15.60;;;10.20;;
69126;SDS011;56688;50.234;19.292;2023-11-22T00:16:02;17.30;;;10.50;;
69126;SDS011;56688;50.234;19.292;2023-11-22T00:18:30;15.50;;;10.10;;
69126;SDS011;56688;50.234;19.292;2023-11-22T00:20:57;19.80;;;11.00;;
69126;SDS011;56688;50.234;19.292;2023-11-22T00:23:25;19.10;;;10.80;;
69126;SDS011;56688;50.234;19.292;2023-11-22T00:25:55;17.40;;;10.70;;
69126;SDS011;56688;50.234;19.292;2023-11-22T00:28:23;17.60;;;12.00;;
69126;SDS011;56688;50.234;19.292;2023-11-22T00:30:50;17.30;;;10.90;;
69126;SDS011;56688;50.234;19.292;2023-11-22T00:33:17;16.80;;;10.40;;
69126;SDS011;56688;50.234;19.292;2023-11-22T00:35:46;17.40;;;10.80;;
69126;SDS011;56688;50.234;19.292;2023-11-22T00:38:13;15.10;;;10.10;;
69126;SDS011;56688;50.234;19.292;2023-11-22T00:40:40;15.10;;;10.00;;
69126;SDS011;56688;50.234;19.292;2023-11-22T00:43:07;16.20;;;10.80;;
69126;SDS011;56688;50.234;19.292;2023-11-22T00:45:35;20.70;;;10.40;;
69126;SDS011;56688;50.234;19.292;2023-11-22T00:48:02;18.60;;;10.70;;
69126;SDS011;56688;50.234;19.292;2023-11-22T00:50:29;16.00;;;10.70;;
69126;SDS011;56688;50.234;19.292;2023-11-22T00:52:56;13.50;;;9.00;;
69126;SDS011;56688;50.234;19.292;2023-11-22T00:55:22;17.80;;;11.30;;
69126;SDS011;56688;50.234;19.292;2023-11-22T00:57:49;16.90;;;10.40;;
69126;SDS011;56688;50.234;19.292;2023-11-22T01:00:16;17.00;;;10.40;;
69126;SDS011;56688;50.234;19.292;2023-11-22T01:02:44;17.80;;;10.90;;
69126;SDS011;56688;50.234;19.292;2023-11-22T01:05:11;18.30;;;11.40;;
69126;SDS011;56688;50.234;19.292;2023-11-22T01:07:38;17.10;;;11.00;;
69126;SDS011;56688;50.234;19.292;2023-11-22T01:10:06;16.70;;;11.70;;
69126;SDS011;56688;50.234;19.292;2023-11-22T01:12:34;16.80;;;10.40;;
69126;SDS011;56688;50.234;19.292;2023-11-22T01:15:01;18.30;;;11.30;;
69126;SDS011;56688;50.234;19.292;2023-11-22T01:17:29;17.40;;;11.30;;
69126;SDS011;56688;50.234;19.292;2023-11-22T01:20:01;17.10;;;10.80;;
69126;SDS011;56688;50.234;19.292;2023-11-22T01:22:29;18.10;;;10.90;;
69126;SDS011;56688;50.234;19.292;2023-11-22T01:24:56;20.30;;;12.10;;
69126;SDS011;56688;50.234;19.292;2023-11-22T01:27:22;19.50;;;11.90;;
69126;SDS011;56688;50.234;19.292;2023-11-22T01:29:51;18.70;;;12.40;;
69126;SDS011;56688;50.234;19.292;2023-11-22T01:32:20;20.00;;;12.30;;
69126;SDS011;56688;50.234;19.292;2023-11-22T01:34:48;21.60;;;11.60;;
69126;SDS011;56688;50.234;19.292;2023-11-22T01:37:15;18.80;;;11.60;;
69126;SDS011;56688;50.234;19.292;2023-11-22T01:39:42;19.90;;;12.80;;
69126;SDS011;56688;50.234;19.292;2023-11-22T01:42:09;20.50;;;13.40;;
69126;SDS011;56688;50.234;19.292;2023-11-22T01:44:36;23.00;;;13.50;;
69126;SDS011;56688;50.234;19.292;2023-11-22T01:47:04;21.10;;;13.80;;
69126;SDS011;56688;50.234;19.292;2023-11-22T01:49:31;22.90;;;12.60;;
69126;SDS011;56688;50.234;19.292;2023-11-22T01:51:59;22.00;;;13.00;;
69126;SDS011;56688;50.234;19.292;2023-11-22T01:54:27;23.10;;;13.10;;
69126;SDS011;56688;50.234;19.292;2023-11-22T01:56:56;20.40;;;12.90;;
69126;SDS011;56688;50.234;19.292;2023-11-22T01:59:24;22.90;;;14.10;;
69126;SDS011;56688;50.234;19.292;2023-11-22T02:01:53;22.30;;;13.00;;
69126;SDS011;56688;50.234;19.292;2023-11-22T02:04:21;24.00;;;14.40;;
69126;SDS011;56688;50.234;19.292;2023-11-22T02:06:49;24.00;;;13.20;;
69126;SDS011;56688;50.234;19.292;2023-11-22T02:09:18;24.50;;;13.40;;
69126;SDS011;56688;50.234;19.292;2023-11-22T02:11:46;21.90;;;12.90;;
69126;SDS011;56688;50.234;19.292;2023-11-22T02:14:14;22.20;;;13.40;;
69126;SDS011;56688;50.234;19.292;2023-11-22T02:16:42;21.90;;;12.30;;
69126;SDS011;56688;50.234;19.292;2023-11-22T02:19:13;20.90;;;12.60;;
69126;SDS011;56688;50.234;19.292;2023-11-22T02:21:43;20.90;;;13.20;;
69126;SDS011;56688;50.234;19.292;2023-11-22T02:24:10;24.20;;;12.80;;
69126;SDS011;56688;50.234;19.292;2023-11-22T02:26:42;21.50;;;12.60;;
69126;SDS011;56688;50.234;19.292;2023-11-22T02:29:10;23.10;;;12.60;;
69126;SDS011;56688;50.234;19.292;2023-11-22T02:31:38;23.40;;;13.50;;
69126;SDS011;56688;50.234;19.292;2023-11-22T02:34:06;21.40;;;12.60;;
69126;SDS011;56688;50.234;19.292;2023-11-22T02:36:33;28.80;;;16.40;;
69126;SDS011;56688;50.234;19.292;2023-11-22T02:39:00;47.70;;;19.00;;
69126;SDS011;56688;50.234;19.292;2023-11-22T02:41:27;29.90;;;16.60;;
69126;SDS011;56688;50.234;19.292;2023-11-22T02:43:56;27.50;;;15.30;;
69126;SDS011;56688;50.234;19.292;2023-11-22T02:46:23;29.60;;;17.30;;
69126;SDS011;56688;50.234;19.292;2023-11-22T02:48:50;29.90;;;15.80;;
69126;SDS011;56688;50.234;19.292;2023-11-22T02:51:17;34.00;;;16.50;;
69126;SDS011;56688;50.234;19.292;2023-11-22T02:53:44;30.20;;;16.40;;
69126;SDS011;56688;50.234;19.292;2023-11-22T02:56:12;33.70;;;17.70;;
69126;SDS011;56688;50.234;19.292;2023-11-22T02:58:40;29.40;;;15.80;;
69126;SDS011;56688;50.234;19.292;2023-11-22T03:01:07;31.00;;;18.40;;
69126;SDS011;56688;50.234;19.292;2023-11-22T03:03:34;28.10;;;16.70;;
69126;SDS011;56688;50.234;19.292;2023-11-22T03:06:03;26.10;;;15.50;;
69126;SDS011;56688;50.234;19.292;2023-11-22T03:08:31;32.90;;;16.10;;
69126;SDS011;56688;50.234;19.292;2023-11-22T03:10:59;27.10;;;14.20;;
69126;SDS011;56688;50.234;19.292;2023-11-22T03:13:26;29.20;;;15.30;;
69126;SDS011;56688;50.234;19.292;2023-11-22T03:15:54;31.30;;;15.90;;
69126;SDS011;56688;50.234;19.292;2023-11-22T03:18:22;24.00;;;14.10;;
69126;SDS011;56688;50.234;19.292;2023-11-22T03:20:49;28.30;;;14.40;;
69126;SDS011;56688;50.234;19.292;2023-11-22T03:23:21;22.70;;;12.60;;
69126;SDS011;56688;50.234;19.292;2023-11-22T03:25:48;25.10;;;13.80;;
69126;SDS011;56688;50.234;19.292;2023-11-22T03:28:15;24.20;;;13.20;;
69126;SDS011;56688;50.234;19.292;2023-11-22T03:30:42;22.50;;;13.70;;
69126;SDS011;56688;50.234;19.292;2023-11-22T03:33:09;20.50;;;12.80;;
69126;SDS011;56688;50.234;19.292;2023-11-22T03:35:36;22.80;;;13.60;;
69126;SDS011;56688;50.234;19.292;2023-11-22T03:38:04;27.60;;;14.90;;
69126;SDS011;56688;50.234;19.292;2023-11-22T03:40:32;24.20;;;13.00;;
69126;SDS011;56688;50.234;19.292;2023-11-22T03:42:59;22.40;;;12.80;;
69126;SDS011;56688;50.234;19.292;2023-11-22T03:45:26;25.10;;;13.60;;
69126;SDS011;56688;50.234;19.292;2023-11-22T03:47:53;21.70;;;12.60;;
69126;SDS011;56688;50.234;19.292;2023-11-22T03:50:20;27.50;;;13.90;;
69126;SDS011;56688;50.234;19.292;2023-11-22T03:52:47;23.50;;;13.00;;
69126;SDS011;56688;50.234;19.292;2023-11-22T03:55:25;26.00;;;13.60;;
69126;SDS011;56688;50.234;19.292;2023-11-22T03:57:52;21.40;;;11.90;;
69126;SDS011;56688;50.234;19.292;2023-11-22T04:00:19;21.50;;;12.60;;
69126;SDS011;56688;50.234;19.292;2023-11-22T04:02:46;21.20;;;12.70;;
69126;SDS011;56688;50.234;19.292;2023-11-22T04:05:13;24.10;;;12.80;;
69126;SDS011;56688;50.234;19.292;2023-11-22T04:07:40;23.00;;;13.50;;
69126;SDS011;56688;50.234;19.292;2023-11-22T04:10:08;24.10;;;13.30;;
69126;SDS011;56688;50.234;19.292;2023-11-22T04:12:35;25.20;;;14.20;;
69126;SDS011;56688;50.234;19.292;2023-11-22T04:15:03;30.90;;;16.00;;
69126;SDS011;56688;50.234;19.292;2023-11-22T04:17:31;28.20;;;14.20;;
69126;SDS011;56688;50.234;19.292;2023-11-22T04:19:59;28.20;;;14.00;;
69126;SDS011;56688;50.234;19.292;2023-11-22T04:22:26;25.00;;;13.40;;
69126;SDS011;56688;50.234;19.292;2023-11-22T04:24:53;29.10;;;14.50;;
69126;SDS011;56688;50.234;19.292;2023-11-22T04:27:20;28.00;;;15.00;;
69126;SDS011;56688;50.234;19.292;2023-11-22T04:29:47;29.60;;;14.80;;
69126;SDS011;56688;50.234;19.292;2023-11-22T04:32:14;26.60;;;13.50;;
69126;SDS011;56688;50.234;19.292;2023-11-22T04:34:42;26.10;;;13.70;;
69126;SDS011;56688;50.234;19.292;2023-11-22T04:37:09;26.10;;;14.60;;
69126;SDS011;56688;50.234;19.292;2023-11-22T04:39:35;28.90;;;14.20;;
69126;SDS011;56688;50.234;19.292;2023-11-22T04:42:02;26.20;;;14.40;;
69126;SDS011;56688;50.234;19.292;2023-11-22T04:44:30;29.90;;;15.00;;
69126;SDS011;56688;50.234;19.292;2023-11-22T04:46:57;22.90;;;11.80;;
69126;SDS011;56688;50.234;19.292;2023-11-22T04:49:26;27.70;;;15.00;;
69126;SDS011;56688;50.234;19.292;2023-11-22T04:51:53;23.50;;;13.80;;
69126;SDS011;56688;50.234;19.292;2023-11-22T04:54:21;27.50;;;14.50;;
69126;SDS011;56688;50.234;19.292;2023-11-22T04:56:48;24.50;;;13.80;;
69126;SDS011;56688;50.234;19.292;2023-11-22T04:59:15;23.10;;;13.40;;
69126;SDS011;56688;50.234;19.292;2023-11-22T05:01:42;21.00;;;11.40;;
69126;SDS011;56688;50.234;19.292;2023-11-22T05:04:09;22.80;;;12.90;;
69126;SDS011;56688;50.234;19.292;2023-11-22T05:06:37;22.10;;;12.30;;
69126;SDS011;56688;50.234;19.292;2023-11-22T05:09:04;23.00;;;12.20;;
69126;SDS011;56688;50.234;19.292;2023-11-22T05:11:32;21.50;;;11.60;;
69126;SDS011;56688;50.234;19.292;2023-11-22T05:13:59;22.40;;;12.00;;
69126;SDS011;56688;50.234;19.292;2023-11-22T05:16:26;25.90;;;12.60;;
69126;SDS011;56688;50.234;19.292;2023-11-22T05:18:53;22.60;;;11.90;;
69126;SDS011;56688;50.234;19.292;2023-11-22T05:21:20;26.00;;;13.00;;
69126;SDS011;56688;50.234;19.292;2023-11-22T05:23:47;22.60;;;11.80;;
69126;SDS011;56688;50.234;19.292;2023-11-22T05:26:14;21.70;;;11.70;;
69126;SDS011;56688;50.234;19.292;2023-11-22T05:28:41;20.50;;;11.90;;
69126;SDS011;56688;50.234;19.292;2023-11-22T05:31:08;24.10;;;11.60;;
69126;SDS011;56688;50.234;19.292;2023-11-22T05:33:35;18.90;;;11.50;;
69126;SDS011;56688;50.234;19.292;2023-11-22T05:36:01;21.00;;;11.10;;
69126;SDS011;56688;50.234;19.292;2023-11-22T05:38:28;20.70;;;12.20;;
69126;SDS011;56688;50.234;19.292;2023-11-22T05:40:55;21.20;;;11.40;;
69126;SDS011;56688;50.234;19.292;2023-11-22T05:43:22;20.60;;;10.80;;
69126;SDS011;56688;50.234;19.292;2023-11-22T05:45:53;16.00;;;9.60;;
69126;SDS011;56688;50.234;19.292;2023-11-22T05:48:21;18.00;;;9.60;;
69126;SDS011;56688;50.234;19.292;2023-11-22T05:50:48;15.90;;;9.50;;
69126;SDS011;56688;50.234;19.292;2023-11-22T05:53:16;18.80;;;9.90;;
69126;SDS011;56688;50.234;19.292;2023-11-22T05:55:48;15.70;;;9.30;;
69126;SDS011;56688;50.234;19.292;2023-11-22T05:58:15;15.80;;;9.00;;
69126;SDS011;56688;50.234;19.292;2023-11-22T06:00:46;13.50;;;8.20;;
69126;SDS011;56688;50.234;19.292;2023-11-22T06:03:29;14.80;;;9.30;;
69126;SDS011;56688;50.234;19.292;2023-11-22T06:05:56;13.00;;;8.20;;
69126;SDS011;56688;50.234;19.292;2023-11-22T06:08:24;17.30;;;9.70;;
69126;SDS011;56688;50.234;19.292;2023-11-22T06:10:51;15.00;;;8.50;;
69126;SDS011;56688;50.234;19.292;2023-11-22T06:13:19;14.50;;;9.10;;
69126;SDS011;56688;50.234;19.292;2023-11-22T06:15:46;18.00;;;9.10;;
69126;SDS011;56688;50.234;19.292;2023-11-22T06:18:14;13.10;;;7.70;;
69126;SDS011;56688;50.234;19.292;2023-11-22T06:20:42;17.70;;;10.10;;
69126;SDS011;56688;50.234;19.292;2023-11-22T06:23:09;18.30;;;9.70;;
69126;SDS011;56688;50.234;19.292;2023-11-22T06:25:36;19.20;;;10.20;;
69126;SDS011;56688;50.234;19.292;2023-11-22T06:28:03;22.00;;;11.80;;
69126;SDS011;56688;50.234;19.292;2023-11-22T06:30:30;23.00;;;11.90;;
69126;SDS011;56688;50.234;19.292;2023-11-22T06:32:57;22.60;;;12.70;;
69126;SDS011;56688;50.234;19.292;2023-11-22T06:35:24;25.70;;;12.70;;
69126;SDS011;56688;50.234;19.292;2023-11-22T06:37:51;21.10;;;11.30;;
69126;SDS011;56688;50.234;19.292;2023-11-22T06:40:18;22.20;;;12.80;;
69126;SDS011;56688;50.234;19.292;2023-11-22T06:42:47;18.80;;;10.90;;
69126;SDS011;56688;50.234;19.292;2023-11-22T06:45:14;18.00;;;10.90;;
69126;SDS011;56688;50.234;19.292;2023-11-22T06:47:42;21.80;;;12.30;;
69126;SDS011;56688;50.234;19.292;2023-11-22T06:50:10;19.80;;;11.60;;
69126;SDS011;56688;50.234;19.292;2023-11-22T06:52:37;19.30;;;10.90;;
69126;SDS011;56688;50.234;19.292;2023-11-22T06:55:05;20.00;;;11.20;;
69126;SDS011;56688;50.234;19.292;2023-11-22T06:57:36;18.80;;;10.40;;
69126;SDS011;56688;50.234;19.292;2023-11-22T07:00:05;18.80;;;10.50;;
69126;SDS011;56688;50.234;19.292;2023-11-22T07:02:32;23.50;;;12.40;;
69126;SDS011;56688;50.234;19.292;2023-11-22T07:04:59;19.10;;;11.40;;
69126;SDS011;56688;50.234;19.292;2023-11-22T07:07:26;18.50;;;9.90;;
69126;SDS011;56688;50.234;19.292;2023-11-22T07:09:53;17.80;;;10.40;;
69126;SDS011;56688;50.234;19.292;2023-11-22T07:12:25;17.90;;;10.60;;
69126;SDS011;56688;50.234;19.292;2023-11-22T07:14:53;21.00;;;12.20;;
69126;SDS011;56688;50.234;19.292;2023-11-22T07:17:20;18.60;;;10.30;;
69126;SDS011;56688;50.234;19.292;2023-11-22T07:19:48;18.30;;;9.80;;
69126;SDS011;56688;50.234;19.292;2023-11-22T07:22:15;17.90;;;10.50;;
69126;SDS011;56688;50.234;19.292;2023-11-22T07:24:43;18.40;;;11.00;;
69126;SDS011;56688;50.234;19.292;2023-11-22T07:27:11;22.90;;;11.20;;
69126;SDS011;56688;50.234;19.292;2023-11-22T07:29:40;18.70;;;9.70;;
69126;SDS011;56688;50.234;19.292;2023-11-22T07:32:07;17.60;;;10.30;;
69126;SDS011;56688;50.234;19.292;2023-11-22T07:34:35;17.00;;;10.30;;
69126;SDS011;56688;50.234;19.292;2023-11-22T07:37:03;16.00;;;10.00;;
69126;SDS011;56688;50.234;19.292;2023-11-22T07:39:30;20.20;;;11.30;;
69126;SDS011;56688;50.234;19.292;2023-11-22T07:41:57;17.80;;;10.40;;
69126;SDS011;56688;50.234;19.292;2023-11-22T07:44:24;21.60;;;11.80;;
69126;SDS011;56688;50.234;19.292;2023-11-22T07:46:51;17.50;;;10.40;;
69126;SDS011;56688;50.234;19.292;2023-11-22T07:49:19;21.50;;;11.10;;
69126;SDS011;56688;50.234;19.292;2023-11-22T07:51:48;18.50;;;11.20;;
69126;SDS011;56688;50.234;19.292;2023-11-22T07:54:18;18.00;;;10.00;;
69126;SDS011;56688;50.234;19.292;2023-11-22T07:56:49;25.90;;;13.30;;
69126;SDS011;56688;50.234;19.292;2023-11-22T07:59:16;18.90;;;10.90;;
69126;SDS011;56688;50.234;19.292;2023-11-22T08:01:43;20.20;;;12.00;;
69126;SDS011;56688;50.234;19.292;2023-11-22T08:04:10;17.40;;;10.00;;
69126;SDS011;56688;50.234;19.292;2023-11-22T08:06:37;16.30;;;10.10;;
69126;SDS011;56688;50.234;19.292;2023-11-22T08:09:05;18.80;;;10.60;;
69126;SDS011;56688;50.234;19.292;2023-11-22T08:11:35;18.00;;;10.00;;
69126;SDS011;56688;50.234;19.292;2023-11-22T08:14:03;22.50;;;11.20;;
69126;SDS011;56688;50.234;19.292;2023-11-22T08:16:30;20.50;;;10.20;;
69126;SDS011;56688;50.234;19.292;2023-11-22T08:18:58;22.40;;;11.00;;
69126;SDS011;56688;50.234;19.292;2023-11-22T08:21:25;19.50;;;11.10;;
69126;SDS011;56688;50.234;19.292;2023-11-22T08:23:52;22.40;;;11.20;;
69126;SDS011;56688;50.234;19.292;2023-11-22T08:26:19;19.40;;;11.10;;
69126;SDS011;56688;50.234;19.292;2023-11-22T08:28:46;18.80;;;10.70;;
69126;SDS011;56688;50.234;19.292;2023-11-22T08:31:13;20.40;;;11.10;;
69126;SDS011;56688;50.234;19.292;2023-11-22T08:33:43;18.20;;;10.20;;
69126;SDS011;56688;50.234;19.292;2023-11-22T08:36:10;20.90;;;10.40;;
69126;SDS011;56688;50.234;19.292;2023-11-22T08:38:37;17.60;;;10.00;;
69126;SDS011;56688;50.234;19.292;2023-11-22T08:41:08;19.20;;;10.70;;
69126;SDS011;56688;50.234;19.292;2023-11-22T08:43:40;21.10;;;10.90;;
69126;SDS011;56688;50.234;19.292;2023-11-22T08:46:08;21.60;;;11.70;;
69126;SDS011;56688;50.234;19.292;2023-11-22T08:48:41;21.80;;;10.80;;
69126;SDS011;56688;50.234;19.292;2023-11-22T08:51:09;22.80;;;11.60;;
69126;SDS011;56688;50.234;19.292;2023-11-22T08:53:38;19.10;;;10.70;;
69126;SDS011;56688;50.234;19.292;2023-11-22T08:56:05;23.00;;;11.70;;
69126;SDS011;56688;50.234;19.292;2023-11-22T08:58:38;18.60;;;10.80;;
69126;SDS011;56688;50.234;19.292;2023-11-22T09:01:06;17.60;;;10.70;;
69126;SDS011;56688;50.234;19.292;2023-11-22T09:03:34;17.80;;;10.40;;
69126;SDS011;56688;50.234;19.292;2023-11-22T09:06:01;16.60;;;9.50;;
69126;SDS011;56688;50.234;19.292;2023-11-22T09:08:29;20.90;;;10.40;;
69126;SDS011;56688;50.234;19.292;2023-11-22T09:10:57;20.60;;;10.70;;
69126;SDS011;56688;50.234;19.292;2023-11-22T09:13:24;18.00;;;9.40;;
69126;SDS011;56688;50.234;19.292;2023-11-22T09:15:51;17.60;;;9.60;;
69126;SDS011;56688;50.234;19.292;2023-11-22T09:18:18;16.50;;;9.60;;
69126;SDS011;56688;50.234;19.292;2023-11-22T09:20:45;17.50;;;9.90;;
69126;SDS011;56688;50.234;19.292;2023-11-22T09:23:12;20.20;;;10.40;;
69126;SDS011;56688;50.234;19.292;2023-11-22T09:25:41;19.20;;;9.20;;
69126;SDS011;56688;50.234;19.292;2023-11-22T09:28:08;16.30;;;9.10;;
69126;SDS011;56688;50.234;19.292;2023-11-22T09:30:36;18.20;;;9.80;;
69126;SDS011;56688;50.234;19.292;2023-11-22T09:33:06;16.20;;;9.50;;
69126;SDS011;56688;50.234;19.292;2023-11-22T09:35:35;15.80;;;9.00;;
69126;SDS011;56688;50.234;19.292;2023-11-22T09:38:04;15.40;;;9.30;;
69126;SDS011;56688;50.234;19.292;2023-11-22T09:40:42;16.00;;;9.20;;
69126;SDS011;56688;50.234;19.292;2023-11-22T09:43:14;16.50;;;9.00;;
69126;SDS011;56688;50.234;19.292;2023-11-22T09:45:46;18.70;;;10.40;;
69126;SDS011;56688;50.234;19.292;2023-11-22T09:48:21;18.70;;;9.90;;
69126;SDS011;56688;50.234;19.292;2023-11-22T09:53:29;17.40;;;9.30;;
69126;SDS011;56688;50.234;19.292;2023-11-22T09:55:58;17.40;;;9.10;;
69126;SDS011;56688;50.234;19.292;2023-11-22T09:58:26;16.10;;;9.10;;
69126;SDS011;56688;50.234;19.292;2023-11-22T10:00:56;17.80;;;9.50;;
69126;SDS011;56688;50.234;19.292;2023-11-22T10:03:23;14.90;;;8.50;;
69126;SDS011;56688;50.234;19.292;2023-11-22T10:05:53;15.20;;;8.00;;
69126;SDS011;56688;50.234;19.292;2023-11-22T10:08:20;15.90;;;8.90;;
69126;SDS011;56688;50.234;19.292;2023-11-22T10:10:49;16.00;;;8.70;;
69126;SDS011;56688;50.234;19.292;2023-11-22T10:13:17;17.60;;;10.10;;
69126;SDS011;56688;50.234;19.292;2023-11-22T10:15:47;18.30;;;8.40;;
69126;SDS011;56688;50.234;19.292;2023-11-22T10:18:15;13.50;;;6.90;;
69126;SDS011;56688;50.234;19.292;2023-11-22T10:20:45;15.20;;;7.80;;
69126;SDS011;56688;50.234;19.292;2023-11-22T10:23:14;15.20;;;8.90;;
69126;SDS011;56688;50.234;19.292;2023-11-22T10:25:43;16.40;;;9.00;;
69126;SDS011;56688;50.234;19.292;2023-11-22T10:28:16;18.10;;;9.10;;
69126;SDS011;56688;50.234;19.292;2023-11-22T10:30:45;10.90;;;7.10;;
69126;SDS011;56688;50.234;19.292;2023-11-22T10:33:13;14.00;;;7.70;;
69126;SDS011;56688;50.234;19.292;2023-11-22T10:35:43;13.50;;;7.80;;
69126;SDS011;56688;50.234;19.292;2023-11-22T10:38:10;16.50;;;7.80;;
69126;SDS011;56688;50.234;19.292;2023-11-22T10:40:40;11.10;;;6.30;;
69126;SDS011;56688;50.234;19.292;2023-11-22T10:43:08;11.60;;;6.70;;
69126;SDS011;56688;50.234;19.292;2023-11-22T10:45:37;12.10;;;6.30;;
69126;SDS011;56688;50.234;19.292;2023-11-22T10:48:07;9.30;;;6.30;;
69126;SDS011;56688;50.234;19.292;2023-11-22T10:50:35;8.70;;;6.10;;
69126;SDS011;56688;50.234;19.292;2023-11-22T10:53:04;10.00;;;6.00;;
69126;SDS011;56688;50.234;19.292;2023-11-22T10:55:34;10.20;;;6.20;;
69126;SDS011;56688;50.234;19.292;2023-11-22T10:58:03;9.20;;;6.00;;
69126;SDS011;56688;50.234;19.292;2023-11-22T11:00:33;11.50;;;6.30;;
69126;SDS011;56688;50.234;19.292;2023-11-22T11:03:06;12.90;;;7.40;;
69126;SDS011;56688;50.234;19.292;2023-11-22T11:05:38;13.50;;;6.60;;
69126;SDS011;56688;50.234;19.292;2023-11-22T11:08:08;15.20;;;7.80;;
69126;SDS011;56688;50.234;19.292;2023-11-22T11:10:39;13.50;;;6.40;;
69126;SDS011;56688;50.234;19.292;2023-11-22T11:13:08;11.80;;;6.30;;
69126;SDS011;56688;50.234;19.292;2023-11-22T11:15:36;11.30;;;6.70;;
69126;SDS011;56688;50.234;19.292;2023-11-22T11:18:06;10.30;;;6.20;;
69126;SDS011;56688;50.234;19.292;2023-11-22T11:23:20;16.00;;;8.50;;
69126;SDS011;56688;50.234;19.292;2023-11-22T11:25:51;14.50;;;7.60;;
69126;SDS011;56688;50.234;19.292;2023-11-22T11:28:20;13.20;;;6.90;;
69126;SDS011;56688;50.234;19.292;2023-11-22T11:30:48;13.60;;;7.30;;
69126;SDS011;56688;50.234;19.292;2023-11-22T11:33:18;12.40;;;6.90;;
69126;SDS011;56688;50.234;19.292;2023-11-22T11:35:52;15.40;;;8.50;;
69126;SDS011;56688;50.234;19.292;2023-11-22T11:38:27;11.40;;;6.10;;
69126;SDS011;56688;50.234;19.292;2023-11-22T11:41:05;12.00;;;6.90;;
69126;SDS011;56688;50.234;19.292;2023-11-22T11:46:13;10.30;;;6.00;;
69126;SDS011;56688;50.234;19.292;2023-11-22T11:48:44;8.10;;;5.40;;
69126;SDS011;56688;50.234;19.292;2023-11-22T11:51:14;10.00;;;6.20;;
69126;SDS011;56688;50.234;19.292;2023-11-22T11:53:42;8.90;;;5.80;;
69126;SDS011;56688;50.234;19.292;2023-11-22T11:56:10;12.90;;;7.40;;
69126;SDS011;56688;50.234;19.292;2023-11-22T11:58:38;11.90;;;7.00;;
69126;SDS011;56688;50.234;19.292;2023-11-22T12:01:08;9.70;;;6.20;;
69126;SDS011;56688;50.234;19.292;2023-11-22T12:03:36;9.60;;;6.20;;
69126;SDS011;56688;50.234;19.292;2023-11-22T12:06:03;9.60;;;5.10;;
69126;SDS011;56688;50.234;19.292;2023-11-22T12:08:31;8.60;;;5.40;;
69126;SDS011;56688;50.234;19.292;2023-11-22T12:11:03;11.90;;;6.50;;
69126;SDS011;56688;50.234;19.292;2023-11-22T12:13:33;12.40;;;6.00;;
69126;SDS011;56688;50.234;19.292;2023-11-22T12:16:01;11.00;;;6.60;;
69126;SDS011;56688;50.234;19.292;2023-11-22T12:18:30;8.80;;;5.30;;
69126;SDS011;56688;50.234;19.292;2023-11-22T12:21:06;8.30;;;5.20;;
69126;SDS011;56688;50.234;19.292;2023-11-22T12:23:33;9.10;;;5.20;;
69126;SDS011;56688;50.234;19.292;2023-11-22T12:26:01;7.50;;;4.70;;
69126;SDS011;56688;50.234;19.292;2023-11-22T12:28:29;7.80;;;4.80;;
69126;SDS011;56688;50.234;19.292;2023-11-22T12:31:06;10.70;;;5.20;;
69126;SDS011;56688;50.234;19.292;2023-11-22T12:33:37;7.80;;;4.30;;
69126;SDS011;56688;50.234;19.292;2023-11-22T12:36:07;11.40;;;6.10;;
69126;SDS011;56688;50.234;19.292;2023-11-22T12:38:36;11.60;;;6.10;;
69126;SDS011;56688;50.234;19.292;2023-11-22T12:41:05;13.30;;;7.30;;
69126;SDS011;56688;50.234;19.292;2023-11-22T12:43:33;14.10;;;6.20;;
69126;SDS011;56688;50.234;19.292;2023-11-22T12:46:12;11.90;;;6.20;;
69126;SDS011;56688;50.234;19.292;2023-11-22T12:48:42;9.40;;;5.60;;
69126;SDS011;56688;50.234;19.292;2023-11-22T12:51:17;14.70;;;7.00;;
69126;SDS011;56688;50.234;19.292;2023-11-22T12:53:49;12.40;;;6.50;;
69126;SDS011;56688;50.234;19.292;2023-11-22T12:56:17;12.20;;;6.50;;
69126;SDS011;56688;50.234;19.292;2023-11-22T12:58:44;10.40;;;5.70;;
69126;SDS011;56688;50.234;19.292;2023-11-22T13:01:11;10.50;;;6.40;;
69126;SDS011;56688;50.234;19.292;2023-11-22T13:03:38;9.60;;;5.30;;
69126;SDS011;56688;50.234;19.292;2023-11-22T13:06:05;9.90;;;5.90;;
69126;SDS011;56688;50.234;19.292;2023-11-22T13:08:32;11.50;;;6.20;;
69126;SDS011;56688;50.234;19.292;2023-11-22T13:11:01;8.90;;;5.30;;
69126;SDS011;56688;50.234;19.292;2023-11-22T13:13:28;13.60;;;7.70;;
69126;SDS011;56688;50.234;19.292;2023-11-22T13:15:58;11.30;;;6.70;;
69126;SDS011;56688;50.234;19.292;2023-11-22T13:18:25;17.40;;;11.30;;
69126;SDS011;56688;50.234;19.292;2023-11-22T13:20:53;12.90;;;7.90;;
69126;SDS011;56688;50.234;19.292;2023-11-22T13:23:20;9.80;;;6.20;;
69126;SDS011;56688;50.234;19.292;2023-11-22T13:25:47;13.30;;;6.30;;
69126;SDS011;56688;50.234;19.292;2023-11-22T13:28:15;17.00;;;9.50;;
69126;SDS011;56688;50.234;19.292;2023-11-22T13:30:43;36.20;;;18.10;;
69126;SDS011;56688;50.234;19.292;2023-11-22T13:33:10;68.50;;;30.10;;
69126;SDS011;56688;50.234;19.292;2023-11-22T13:35:38;33.90;;;15.00;;
69126;SDS011;56688;50.234;19.292;2023-11-22T13:38:06;39.80;;;16.40;;
69126;SDS011;56688;50.234;19.292;2023-11-22T13:40:38;29.50;;;13.50;;
69126;SDS011;56688;50.234;19.292;2023-11-22T13:43:07;16.40;;;8.10;;
69126;SDS011;56688;50.234;19.292;2023-11-22T13:45:35;11.90;;;6.90;;
69126;SDS011;56688;50.234;19.292;2023-11-22T13:48:05;25.50;;;12.80;;
69126;SDS011;56688;50.234;19.292;2023-11-22T13:50:33;30.90;;;14.80;;
69126;SDS011;56688;50.234;19.292;2023-11-22T13:53:01;14.80;;;8.00;;
69126;SDS011;56688;50.234;19.292;2023-11-22T13:55:30;22.40;;;11.60;;
69126;SDS011;56688;50.234;19.292;2023-11-22T13:57:59;15.00;;;7.90;;
69126;SDS011;56688;50.234;19.292;2023-11-22T14:00:28;24.80;;;13.60;;
69126;SDS011;56688;50.234;19.292;2023-11-22T14:03:00;19.80;;;10.80;;
69126;SDS011;56688;50.234;19.292;2023-11-22T14:05:36;19.00;;;10.80;;
69126;SDS011;56688;50.234;19.292;2023-11-22T14:08:05;26.70;;;12.70;;
69126;SDS011;56688;50.234;19.292;2023-11-22T14:10:33;21.70;;;11.20;;
69126;SDS011;56688;50.234;19.292;2023-11-22T14:13:00;23.50;;;11.90;;
69126;SDS011;56688;50.234;19.292;2023-11-22T14:15:29;22.20;;;10.90;;
69126;SDS011;56688;50.234;19.292;2023-11-22T14:17:57;21.60;;;10.50;;
69126;SDS011;56688;50.234;19.292;2023-11-22T14:20:25;14.90;;;8.90;;
69126;SDS011;56688;50.234;19.292;2023-11-22T14:22:52;18.30;;;10.40;;
69126;SDS011;56688;50.234;19.292;2023-11-22T14:25:19;16.70;;;8.70;;
69126;SDS011;56688;50.234;19.292;2023-11-22T14:27:48;14.20;;;8.90;;